sensor_id;sensor_type;location;lat;lon;timestamp;pressure;altitude;pressure_sealevel;temperature;humidity
40490;BME280;26196;52.302;10.572;2022-07-23T00:01:05;100876.75;;;23.70;43.47
40490;BME280;26196;52.302;10.572;2022-07-23T00:05:05;100874.19;;;23.69;43.55
40490;BME280;26196;52.302;10.572;2022-07-23T00:09:06;100894.59;;;23.70;43.42
40490;BME280;26196;52.302;10.572;2022-07-23T00:13:06;100888.53;;;23.68;43.60
40490;BME280;26196;52.302;10.572;2022-07-23T00:17:07;100884.13;;;23.67;43.43
40490;BME280;26196;52.302;10.572;2022-07-23T00:21:07;100879.88;;;23.64;43.58
40490;BME280;26196;52.302;10.572;2022-07-23T00:25:08;100874.66;;;23.63;43.54
40490;BME280;26196;52.302;10.572;2022-07-23T00:29:08;100876.47;;;23.62;43.52
40490;BME280;26196;52.302;10.572;2022-07-23T00:33:08;100863.56;;;23.56;43.48
40490;BME280;26196;52.302;10.572;2022-07-23T00:37:09;100873.16;;;23.58;43.50
40490;BME280;26196;52.302;10.572;2022-07-23T00:41:10;100883.34;;;23.53;43.30
40490;BME280;26196;52.302;10.572;2022-07-23T00:45:10;100876.09;;;23.55;43.24
40490;BME280;26196;52.302;10.572;2022-07-23T00:49:11;100879.00;;;23.52;43.40
40490;BME280;26196;52.302;10.572;2022-07-23T00:53:12;100878.84;;;23.54;43.32
40490;BME280;26196;52.302;10.572;2022-07-23T00:57:13;100885.53;;;23.48;43.21
40490;BME280;26196;52.302;10.572;2022-07-23T01:01:13;100877.88;;;23.44;43.31
40490;BME280;26196;52.302;10.572;2022-07-23T01:05:14;100893.44;;;23.50;43.34
40490;BME280;26196;52.302;10.572;2022-07-23T01:09:15;100884.78;;;23.46;43.46
40490;BME280;26196;52.302;10.572;2022-07-23T01:13:15;100895.59;;;23.45;43.52
40490;BME280;26196;52.302;10.572;2022-07-23T01:17:16;100877.00;;;23.43;43.54
40490;BME280;26196;52.302;10.572;2022-07-23T01:21:17;100873.63;;;23.41;43.36
40490;BME280;26196;52.302;10.572;2022-07-23T01:25:19;100876.75;;;23.46;43.45
40490;BME280;26196;52.302;10.572;2022-07-23T01:29:20;100873.63;;;23.41;43.44
40490;BME280;26196;52.302;10.572;2022-07-23T01:33:21;100871.78;;;23.42;43.49
40490;BME280;26196;52.302;10.572;2022-07-23T01:37:21;100849.06;;;23.36;43.53
40490;BME280;26196;52.302;10.572;2022-07-23T01:41:22;100860.38;;;23.40;43.37
40490;BME280;26196;52.302;10.572;2022-07-23T01:45:22;100853.44;;;23.37;43.49
40490;BME280;26196;52.302;10.572;2022-07-23T01:49:23;100843.59;;;23.37;43.46
40490;BME280;26196;52.302;10.572;2022-07-23T01:53:23;100849.06;;;23.36;43.42
40490;BME280;26196;52.302;10.572;2022-07-23T01:57:24;100827.81;;;23.34;43.55
40490;BME280;26196;52.302;10.572;2022-07-23T02:01:24;100825.13;;;23.34;43.37
40490;BME280;26196;52.302;10.572;2022-07-23T02:05:25;100819.19;;;23.31;43.60
40490;BME280;26196;52.302;10.572;2022-07-23T02:09:25;100834.22;;;23.32;43.44
40490;BME280;26196;52.302;10.572;2022-07-23T02:13:26;100824.53;;;23.31;43.56
40490;BME280;26196;52.302;10.572;2022-07-23T02:17:26;100823.88;;;23.27;43.65
40490;BME280;26196;52.302;10.572;2022-07-23T02:21:27;100811.75;;;23.23;43.59
40490;BME280;26196;52.302;10.572;2022-07-23T02:25:27;100830.31;;;23.25;43.62
40490;BME280;26196;52.302;10.572;2022-07-23T02:29:28;100820.59;;;23.24;43.21
40490;BME280;26196;52.302;10.572;2022-07-23T02:33:28;100826.28;;;23.19;43.66
40490;BME280;26196;52.302;10.572;2022-07-23T02:37:29;100822.78;;;23.19;43.60
40490;BME280;26196;52.302;10.572;2022-07-23T02:41:29;100820.94;;;23.19;43.34
40490;BME280;26196;52.302;10.572;2022-07-23T02:45:30;100813.78;;;23.20;43.67
40490;BME280;26196;52.302;10.572;2022-07-23T02:49:30;100826.28;;;23.19;43.58
40490;BME280;26196;52.302;10.572;2022-07-23T02:53:31;100813.16;;;23.16;43.63
40490;BME280;26196;52.302;10.572;2022-07-23T02:57:31;100809.16;;;23.10;43.67
40490;BME280;26196;52.302;10.572;2022-07-23T03:01:32;100820.44;;;23.14;43.62
40490;BME280;26196;52.302;10.572;2022-07-23T03:05:33;100820.56;;;23.12;43.58
40490;BME280;26196;52.302;10.572;2022-07-23T03:09:33;100826.84;;;23.11;43.56
40490;BME280;26196;52.302;10.572;2022-07-23T03:13:34;100824.19;;;23.11;43.51
40490;BME280;26196;52.302;10.572;2022-07-23T03:17:34;100840.44;;;23.08;43.73
40490;BME280;26196;52.302;10.572;2022-07-23T03:21:35;100827.09;;;23.08;43.48
40490;BME280;26196;52.302;10.572;2022-07-23T03:25:39;100850.28;;;23.08;43.65
40490;BME280;26196;52.302;10.572;2022-07-23T03:29:39;100841.53;;;23.06;43.69
40490;BME280;26196;52.302;10.572;2022-07-23T03:33:40;100856.69;;;23.05;43.63
40490;BME280;26196;52.302;10.572;2022-07-23T03:37:41;100849.88;;;23.01;43.80
40490;BME280;26196;52.302;10.572;2022-07-23T03:41:41;100849.88;;;23.01;43.96
40490;BME280;26196;52.302;10.572;2022-07-23T03:45:42;100851.69;;;23.01;43.78
40490;BME280;26196;52.302;10.572;2022-07-23T03:49:42;100851.78;;;22.99;43.86
40490;BME280;26196;52.302;10.572;2022-07-23T03:53:43;100858.09;;;22.98;43.88
40490;BME280;26196;52.302;10.572;2022-07-23T03:57:43;100853.81;;;22.96;43.87
40490;BME280;26196;52.302;10.572;2022-07-23T04:01:44;100838.66;;;22.96;44.03
40490;BME280;26196;52.302;10.572;2022-07-23T04:05:44;100831.72;;;22.93;44.01
40490;BME280;26196;52.302;10.572;2022-07-23T04:09:45;100821.16;;;22.92;44.06
40490;BME280;26196;52.302;10.572;2022-07-23T04:13:46;100822.00;;;22.92;44.06
40490;BME280;26196;52.302;10.572;2022-07-23T04:17:46;100822.97;;;22.91;44.10
40490;BME280;26196;52.302;10.572;2022-07-23T04:21:47;100807.19;;;22.88;44.38
40490;BME280;26196;52.302;10.572;2022-07-23T04:25:47;100830.13;;;22.91;44.12
40490;BME280;26196;52.302;10.572;2022-07-23T04:29:47;100836.78;;;22.85;44.02
40490;BME280;26196;52.302;10.572;2022-07-23T04:33:48;100842.34;;;22.82;44.14
40490;BME280;26196;52.302;10.572;2022-07-23T04:37:48;100847.56;;;22.84;44.29
40490;BME280;26196;52.302;10.572;2022-07-23T04:41:49;100859.94;;;22.85;44.24
40490;BME280;26196;52.302;10.572;2022-07-23T04:45:49;100845.09;;;22.81;44.62
40490;BME280;26196;52.302;10.572;2022-07-23T04:49:50;100825.47;;;22.82;44.39
40490;BME280;26196;52.302;10.572;2022-07-23T04:53:50;100824.97;;;22.77;44.55
40490;BME280;26196;52.302;10.572;2022-07-23T04:57:51;100833.91;;;22.76;44.23
40490;BME280;26196;52.302;10.572;2022-07-23T05:01:51;100833.72;;;22.79;44.48
40490;BME280;26196;52.302;10.572;2022-07-23T05:05:52;100827.50;;;22.78;44.58
40490;BME280;26196;52.302;10.572;2022-07-23T05:09:52;100824.97;;;22.77;44.63
40490;BME280;26196;52.302;10.572;2022-07-23T05:13:53;100839.47;;;22.72;44.80
40490;BME280;26196;52.302;10.572;2022-07-23T05:17:53;100849.94;;;22.76;44.82
40490;BME280;26196;52.302;10.572;2022-07-23T05:21:54;100851.13;;;22.71;44.49
40490;BME280;26196;52.302;10.572;2022-07-23T05:25:54;100852.72;;;22.74;44.83
40490;BME280;26196;52.302;10.572;2022-07-23T05:29:55;100847.63;;;22.71;44.94
40490;BME280;26196;52.302;10.572;2022-07-23T05:33:55;100848.47;;;22.71;44.93
40490;BME280;26196;52.302;10.572;2022-07-23T05:37:56;100855.09;;;22.66;44.77
40490;BME280;26196;52.302;10.572;2022-07-23T05:41:56;100855.72;;;22.69;45.02
40490;BME280;26196;52.302;10.572;2022-07-23T05:45:57;100854.97;;;22.67;45.17
40490;BME280;26196;52.302;10.572;2022-07-23T05:49:57;100860.22;;;22.69;45.63
40490;BME280;26196;52.302;10.572;2022-07-23T05:53:58;100862.97;;;22.67;45.83
40490;BME280;26196;52.302;10.572;2022-07-23T05:57:59;100856.78;;;22.67;46.25
40490;BME280;26196;52.302;10.572;2022-07-23T06:01:59;100855.94;;;22.66;46.33
40490;BME280;26196;52.302;10.572;2022-07-23T06:06:00;100851.56;;;22.65;46.40
40490;BME280;26196;52.302;10.572;2022-07-23T06:10:00;100853.50;;;22.63;46.51
40490;BME280;26196;52.302;10.572;2022-07-23T06:14:01;100862.44;;;22.62;46.61
40490;BME280;26196;52.302;10.572;2022-07-23T06:18:01;100856.41;;;22.60;46.46
40490;BME280;26196;52.302;10.572;2022-07-23T06:22:02;100864.19;;;22.63;46.50
40490;BME280;26196;52.302;10.572;2022-07-23T06:26:02;100870.38;;;22.64;46.70
40490;BME280;26196;52.302;10.572;2022-07-23T06:30:03;100846.59;;;22.48;46.90
40490;BME280;26196;52.302;10.572;2022-07-23T06:34:04;100856.41;;;22.60;46.74
40490;BME280;26196;52.302;10.572;2022-07-23T06:38:04;100858.84;;;22.63;46.92
40490;BME280;26196;52.302;10.572;2022-07-23T06:42:05;100867.69;;;22.64;46.91
40490;BME280;26196;52.302;10.572;2022-07-23T06:46:05;100862.34;;;22.64;46.97
40490;BME280;26196;52.302;10.572;2022-07-23T06:50:06;100866.84;;;22.63;46.84
40490;BME280;26196;52.302;10.572;2022-07-23T06:54:06;100865.13;;;22.62;47.21
40490;BME280;26196;52.302;10.572;2022-07-23T06:58:07;100863.66;;;22.58;47.09
40490;BME280;26196;52.302;10.572;2022-07-23T07:02:09;100855.97;;;22.54;47.20
40490;BME280;26196;52.302;10.572;2022-07-23T07:06:10;100861.94;;;22.57;47.25
40490;BME280;26196;52.302;10.572;2022-07-23T07:10:10;100860.47;;;22.53;46.91
40490;BME280;26196;52.302;10.572;2022-07-23T07:14:11;100860.25;;;22.56;47.12
40490;BME280;26196;52.302;10.572;2022-07-23T07:18:11;100863.75;;;22.57;47.46
40490;BME280;26196;52.302;10.572;2022-07-23T07:22:12;100867.28;;;22.57;47.39
40490;BME280;26196;52.302;10.572;2022-07-23T07:26:12;100880.59;;;22.57;47.52
40490;BME280;26196;52.302;10.572;2022-07-23T07:30:13;100885.00;;;22.58;47.68
40490;BME280;26196;52.302;10.572;2022-07-23T07:34:14;100889.50;;;22.58;47.59
40490;BME280;26196;52.302;10.572;2022-07-23T07:38:14;100889.50;;;22.58;47.33
40490;BME280;26196;52.302;10.572;2022-07-23T07:42:15;100893.94;;;22.57;47.37
40490;BME280;26196;52.302;10.572;2022-07-23T07:46:16;100888.84;;;22.54;47.35
40490;BME280;26196;52.302;10.572;2022-07-23T07:50:16;100909.00;;;22.58;47.32
40490;BME280;26196;52.302;10.572;2022-07-23T07:54:17;100895.91;;;22.55;47.06
40490;BME280;26196;52.302;10.572;2022-07-23T07:58:17;100897.59;;;22.56;47.13
40490;BME280;26196;52.302;10.572;2022-07-23T08:02:18;100900.25;;;22.56;47.11
40490;BME280;26196;52.302;10.572;2022-07-23T08:06:18;100903.78;;;22.57;47.13
40490;BME280;26196;52.302;10.572;2022-07-23T08:10:19;100910.09;;;22.56;46.86
40490;BME280;26196;52.302;10.572;2022-07-23T08:14:19;100904.09;;;22.52;46.72
40490;BME280;26196;52.302;10.572;2022-07-23T08:18:20;100900.47;;;22.53;46.81
40490;BME280;26196;52.302;10.572;2022-07-23T08:22:20;100913.59;;;22.56;46.76
40490;BME280;26196;52.302;10.572;2022-07-23T08:26:21;100918.09;;;22.56;47.20
40490;BME280;26196;52.302;10.572;2022-07-23T08:30:22;100915.50;;;22.54;47.18
40490;BME280;26196;52.302;10.572;2022-07-23T08:34:22;100917.25;;;22.55;47.20
40490;BME280;26196;52.302;10.572;2022-07-23T08:38:23;100916.50;;;22.53;47.25
40490;BME280;26196;52.302;10.572;2022-07-23T08:42:25;100924.50;;;22.53;47.16
40490;BME280;26196;52.302;10.572;2022-07-23T08:46:26;100914.66;;;22.54;46.93
40490;BME280;26196;52.302;10.572;2022-07-23T08:50:27;100926.41;;;22.51;46.66
40490;BME280;26196;52.302;10.572;2022-07-23T08:54:28;100928.75;;;22.56;46.82
40490;BME280;26196;52.302;10.572;2022-07-23T08:58:29;100929.81;;;22.53;46.65
40490;BME280;26196;52.302;10.572;2022-07-23T09:02:31;100921.06;;;22.51;46.44
40490;BME280;26196;52.302;10.572;2022-07-23T09:06:32;100920.22;;;22.50;46.48
40490;BME280;26196;52.302;10.572;2022-07-23T09:10:54;100917.44;;;22.52;46.22
40490;BME280;26196;52.302;10.572;2022-07-23T09:14:54;100914.03;;;22.50;46.20
40490;BME280;26196;52.302;10.572;2022-07-23T09:19:04;100925.25;;;22.55;46.16
40490;BME280;26196;52.302;10.572;2022-07-23T09:23:05;100934.94;;;22.56;46.25
40490;BME280;26196;52.302;10.572;2022-07-23T09:27:05;100921.69;;;22.55;46.45
40490;BME280;26196;52.302;10.572;2022-07-23T09:31:06;100928.75;;;22.56;46.23
40490;BME280;26196;52.302;10.572;2022-07-23T09:39:10;100924.28;;;22.56;46.07
40490;BME280;26196;52.302;10.572;2022-07-23T09:43:11;100919.91;;;22.55;45.81
40490;BME280;26196;52.302;10.572;2022-07-23T09:47:12;100921.59;;;22.56;45.49
40490;BME280;26196;52.302;10.572;2022-07-23T09:51:14;100920.84;;;22.54;45.91
40490;BME280;26196;52.302;10.572;2022-07-23T09:55:18;100925.97;;;22.57;45.54
40490;BME280;26196;52.302;10.572;2022-07-23T09:59:23;100926.84;;;22.58;45.34
40490;BME280;26196;52.302;10.572;2022-07-23T10:03:25;100929.38;;;22.59;45.34
40490;BME280;26196;52.302;10.572;2022-07-23T10:07:26;100927.47;;;22.61;45.42
40490;BME280;26196;52.302;10.572;2022-07-23T10:11:31;100925.78;;;22.60;45.46
40490;BME280;26196;52.302;10.572;2022-07-23T10:15:33;100911.56;;;22.60;45.35
40490;BME280;26196;52.302;10.572;2022-07-23T10:19:33;100911.47;;;22.61;45.32
40490;BME280;26196;52.302;10.572;2022-07-23T10:23:51;100906.22;;;22.60;44.87
40490;BME280;26196;52.302;10.572;2022-07-23T10:32:36;100916.78;;;22.61;44.57
40490;BME280;26196;52.302;10.572;2022-07-23T10:36:57;100915.81;;;22.62;44.52
40490;BME280;26196;52.302;10.572;2022-07-23T10:41:02;100902.69;;;22.59;44.36
40490;BME280;26196;52.302;10.572;2022-07-23T10:45:31;100913.16;;;22.62;44.30
40490;BME280;26196;52.302;10.572;2022-07-23T10:49:33;100909.53;;;22.63;44.17
40490;BME280;26196;52.302;10.572;2022-07-23T10:57:50;100907.59;;;22.65;44.08
40490;BME280;26196;52.302;10.572;2022-07-23T11:01:51;100915.59;;;22.65;44.03
40490;BME280;26196;52.302;10.572;2022-07-23T11:05:52;100912.72;;;22.68;43.91
40490;BME280;26196;52.302;10.572;2022-07-23T11:09:53;100904.91;;;22.65;43.79
40490;BME280;26196;52.302;10.572;2022-07-23T11:13:54;100915.28;;;22.70;43.82
40490;BME280;26196;52.302;10.572;2022-07-23T11:21:55;100917.84;;;22.71;43.80
40490;BME280;26196;52.302;10.572;2022-07-23T11:25:57;100917.63;;;22.75;44.01
40490;BME280;26196;52.302;10.572;2022-07-23T11:29:57;100916.63;;;22.76;43.77
40490;BME280;26196;52.302;10.572;2022-07-23T11:38:37;100909.38;;;22.78;43.85
40490;BME280;26196;52.302;10.572;2022-07-23T11:42:40;100912.72;;;22.81;43.61
40490;BME280;26196;52.302;10.572;2022-07-23T11:47:03;100916.22;;;22.82;43.90
40490;BME280;26196;52.302;10.572;2022-07-23T11:51:04;100914.31;;;22.84;43.98
40490;BME280;26196;52.302;10.572;2022-07-23T11:55:10;100921.34;;;22.85;44.09
40490;BME280;26196;52.302;10.572;2022-07-23T11:59:11;100917.59;;;22.87;43.81
40490;BME280;26196;52.302;10.572;2022-07-23T12:03:11;100912.25;;;22.87;43.64
40490;BME280;26196;52.302;10.572;2022-07-23T12:07:38;100912.25;;;22.87;43.54
40490;BME280;26196;52.302;10.572;2022-07-23T12:11:39;100895.63;;;22.84;43.59
40490;BME280;26196;52.302;10.572;2022-07-23T12:15:45;100910.31;;;22.89;43.56
40490;BME280;26196;52.302;10.572;2022-07-23T12:19:46;100908.19;;;22.94;43.68
40490;BME280;26196;52.302;10.572;2022-07-23T12:23:48;100905.38;;;22.96;43.68
40490;BME280;26196;52.302;10.572;2022-07-23T12:32:23;100913.09;;;23.01;43.67
40490;BME280;26196;52.302;10.572;2022-07-23T12:36:36;100909.44;;;23.02;43.55
40490;BME280;26196;52.302;10.572;2022-07-23T12:40:47;100908.38;;;23.04;43.51
40490;BME280;26196;52.302;10.572;2022-07-23T12:45:10;100910.84;;;23.07;43.52
40490;BME280;26196;52.302;10.572;2022-07-23T12:49:25;100898.34;;;23.08;43.35
40490;BME280;26196;52.302;10.572;2022-07-23T12:57:45;100910.59;;;23.10;43.41
40490;BME280;26196;52.302;10.572;2022-07-23T13:01:57;100915.50;;;23.17;43.30
40490;BME280;26196;52.302;10.572;2022-07-23T13:06:03;100913.56;;;23.19;43.41
40490;BME280;26196;52.302;10.572;2022-07-23T13:10:04;100905.31;;;23.22;43.33
40490;BME280;26196;52.302;10.572;2022-07-23T13:14:04;100910.66;;;23.22;43.25
40490;BME280;26196;52.302;10.572;2022-07-23T13:18:05;100920.88;;;23.28;42.97
40490;BME280;26196;52.302;10.572;2022-07-23T13:22:05;100915.34;;;23.31;43.22
40490;BME280;26196;52.302;10.572;2022-07-23T13:26:06;100921.38;;;23.33;43.12
40490;BME280;26196;52.302;10.572;2022-07-23T13:30:07;100920.31;;;23.35;43.09
40490;BME280;26196;52.302;10.572;2022-07-23T13:34:09;100921.91;;;23.38;42.97
40490;BME280;26196;52.302;10.572;2022-07-23T13:38:10;100925.31;;;23.40;43.00
40490;BME280;26196;52.302;10.572;2022-07-23T13:42:10;100913.56;;;23.43;43.00
40490;BME280;26196;52.302;10.572;2022-07-23T13:46:10;100918.06;;;23.42;42.92
40490;BME280;26196;52.302;10.572;2022-07-23T13:50:11;100913.44;;;23.44;42.70
40490;BME280;26196;52.302;10.572;2022-07-23T13:54:12;100913.97;;;23.49;42.69
40490;BME280;26196;52.302;10.572;2022-07-23T13:58:13;100918.22;;;23.52;42.55
40490;BME280;26196;52.302;10.572;2022-07-23T14:02:15;100913.50;;;23.55;42.48
40490;BME280;26196;52.302;10.572;2022-07-23T14:06:16;100916.06;;;23.57;42.45
40490;BME280;26196;52.302;10.572;2022-07-23T14:10:20;100916.66;;;23.61;42.48
40490;BME280;26196;52.302;10.572;2022-07-23T14:14:21;100923.50;;;23.65;42.26
40490;BME280;26196;52.302;10.572;2022-07-23T14:18:22;100916.19;;;23.67;42.16
40490;BME280;26196;52.302;10.572;2022-07-23T14:22:22;100913.31;;;23.70;41.89
40490;BME280;26196;52.302;10.572;2022-07-23T14:26:23;100921.84;;;23.75;42.02
40490;BME280;26196;52.302;10.572;2022-07-23T14:30:24;100917.13;;;23.78;41.93
40490;BME280;26196;52.302;10.572;2022-07-23T14:34:25;100924.06;;;23.81;41.85
40490;BME280;26196;52.302;10.572;2022-07-23T14:38:26;100919.31;;;23.85;41.66
40490;BME280;26196;52.302;10.572;2022-07-23T14:42:27;100916.31;;;23.89;41.56
40490;BME280;26196;52.302;10.572;2022-07-23T14:46:27;100909.47;;;23.85;41.49
40490;BME280;26196;52.302;10.572;2022-07-23T14:50:28;100917.28;;;23.88;41.47
40490;BME280;26196;52.302;10.572;2022-07-23T14:54:29;100921.16;;;23.95;41.30
40490;BME280;26196;52.302;10.572;2022-07-23T14:58:30;100920.31;;;23.95;41.28
40490;BME280;26196;52.302;10.572;2022-07-23T15:02:30;100920.56;;;24.03;41.01
40490;BME280;26196;52.302;10.572;2022-07-23T15:06:32;100915.13;;;24.05;41.02
40490;BME280;26196;52.302;10.572;2022-07-23T15:10:32;100912.31;;;24.06;40.93
40490;BME280;26196;52.302;10.572;2022-07-23T15:14:33;100920.72;;;24.13;40.86
40490;BME280;26196;52.302;10.572;2022-07-23T15:18:34;100930.22;;;24.17;40.77
40490;BME280;26196;52.302;10.572;2022-07-23T15:22:34;100917.81;;;24.16;40.41
40490;BME280;26196;52.302;10.572;2022-07-23T15:26:35;100929.13;;;24.19;40.59
40490;BME280;26196;52.302;10.572;2022-07-23T15:30:35;100928.03;;;24.22;40.43
40490;BME280;26196;52.302;10.572;2022-07-23T15:34:37;100925.59;;;24.19;40.60
40490;BME280;26196;52.302;10.572;2022-07-23T15:38:37;100918.06;;;24.24;40.63
40490;BME280;26196;52.302;10.572;2022-07-23T15:42:38;100916.84;;;24.28;40.30
40490;BME280;26196;52.302;10.572;2022-07-23T15:46:38;100926.47;;;24.31;40.29
40490;BME280;26196;52.302;10.572;2022-07-23T15:50:39;100924.38;;;24.34;40.34
40490;BME280;26196;52.302;10.572;2022-07-23T15:54:40;100930.72;;;24.33;40.27
40490;BME280;26196;52.302;10.572;2022-07-23T15:58:41;100929.28;;;24.40;40.15
40490;BME280;26196;52.302;10.572;2022-07-23T16:02:41;100927.31;;;24.42;39.83
40490;BME280;26196;52.302;10.572;2022-07-23T16:06:42;100936.94;;;24.45;39.91
40490;BME280;26196;52.302;10.572;2022-07-23T16:10:42;100926.03;;;24.48;39.98
40490;BME280;26196;52.302;10.572;2022-07-23T16:14:43;100927.63;;;24.51;39.74
40490;BME280;26196;52.302;10.572;2022-07-23T16:18:44;100921.38;;;24.50;39.58
40490;BME280;26196;52.302;10.572;2022-07-23T16:22:48;100926.38;;;24.55;39.53
40490;BME280;26196;52.302;10.572;2022-07-23T16:26:49;100922.59;;;24.57;39.48
40490;BME280;26196;52.302;10.572;2022-07-23T16:30:49;100924.28;;;24.58;39.60
40490;BME280;26196;52.302;10.572;2022-07-23T16:34:50;100921.63;;;24.58;39.42
40490;BME280;26196;52.302;10.572;2022-07-23T16:38:50;100924.94;;;24.62;39.56
40490;BME280;26196;52.302;10.572;2022-07-23T16:42:51;100930.03;;;24.65;39.60
40490;BME280;26196;52.302;10.572;2022-07-23T16:46:51;100926.38;;;24.66;39.54
40490;BME280;26196;52.302;10.572;2022-07-23T16:50:51;100922.72;;;24.67;39.43
40490;BME280;26196;52.302;10.572;2022-07-23T16:54:52;100927.00;;;24.70;39.42
40490;BME280;26196;52.302;10.572;2022-07-23T16:58:52;100928.31;;;24.75;39.32
40490;BME280;26196;52.302;10.572;2022-07-23T17:02:53;100928.81;;;24.80;39.26
40490;BME280;26196;52.302;10.572;2022-07-23T17:06:53;100934.16;;;24.80;39.16
40490;BME280;26196;52.302;10.572;2022-07-23T17:10:56;100933.06;;;24.83;39.25
40490;BME280;26196;52.302;10.572;2022-07-23T17:14:56;100913.47;;;24.71;39.12
40490;BME280;26196;52.302;10.572;2022-07-23T17:18:57;100943.78;;;24.83;39.18
40490;BME280;26196;52.302;10.572;2022-07-23T17:22:57;100940.94;;;24.84;39.26
40490;BME280;26196;52.302;10.572;2022-07-23T17:26:58;100936.47;;;24.85;39.30
40490;BME280;26196;52.302;10.572;2022-07-23T17:30:59;100944.03;;;24.80;38.55
40490;BME280;26196;52.302;10.572;2022-07-23T17:34:59;100936.84;;;24.80;38.81
40490;BME280;26196;52.302;10.572;2022-07-23T17:39:00;100951.44;;;24.87;38.86
40490;BME280;26196;52.302;10.572;2022-07-23T17:43:00;100958.22;;;24.92;38.68
40490;BME280;26196;52.302;10.572;2022-07-23T17:47:01;100954.59;;;24.93;38.54
40490;BME280;26196;52.302;10.572;2022-07-23T17:51:01;100945.59;;;24.94;38.49
40490;BME280;26196;52.302;10.572;2022-07-23T17:55:02;100945.47;;;24.95;38.30
40490;BME280;26196;52.302;10.572;2022-07-23T17:59:03;100945.31;;;24.97;38.08
40490;BME280;26196;52.302;10.572;2022-07-23T18:03:03;100951.31;;;25.00;38.09
40490;BME280;26196;52.302;10.572;2022-07-23T18:07:04;100955.78;;;25.00;38.07
40490;BME280;26196;52.302;10.572;2022-07-23T18:11:05;100960.19;;;25.01;38.08
40490;BME280;26196;52.302;10.572;2022-07-23T18:15:06;100963.81;;;25.00;38.39
40490;BME280;26196;52.302;10.572;2022-07-23T18:19:07;100966.50;;;25.00;38.33
40490;BME280;26196;52.302;10.572;2022-07-23T18:23:07;100969.06;;;25.01;38.49
40490;BME280;26196;52.302;10.572;2022-07-23T18:27:08;100969.91;;;25.02;38.22
40490;BME280;26196;52.302;10.572;2022-07-23T18:31:08;100970.28;;;24.97;38.62
40490;BME280;26196;52.302;10.572;2022-07-23T18:35:09;100981.38;;;24.93;38.16
40490;BME280;26196;52.302;10.572;2022-07-23T18:39:09;100987.44;;;24.95;37.80
40490;BME280;26196;52.302;10.572;2022-07-23T18:43:10;100995.72;;;24.92;37.33
40490;BME280;26196;52.302;10.572;2022-07-23T18:47:10;100993.28;;;24.88;37.26
40490;BME280;26196;52.302;10.572;2022-07-23T18:51:11;100994.38;;;24.86;37.36
40490;BME280;26196;52.302;10.572;2022-07-23T18:55:11;100989.16;;;24.84;37.38
40490;BME280;26196;52.302;10.572;2022-07-23T18:59:12;101000.59;;;24.86;37.36
40490;BME280;26196;52.302;10.572;2022-07-23T19:03:12;100996.59;;;24.81;37.34
40490;BME280;26196;52.302;10.572;2022-07-23T19:07:13;101005.34;;;24.83;37.20
40490;BME280;26196;52.302;10.572;2022-07-23T19:11:14;101005.72;;;24.78;37.12
40490;BME280;26196;52.302;10.572;2022-07-23T19:15:15;101019.84;;;24.80;37.09
40490;BME280;26196;52.302;10.572;2022-07-23T19:19:16;101024.44;;;24.78;37.26
40490;BME280;26196;52.302;10.572;2022-07-23T19:23:16;101038.69;;;24.79;37.30
40490;BME280;26196;52.302;10.572;2022-07-23T19:27:17;101038.81;;;24.77;37.49
40490;BME280;26196;52.302;10.572;2022-07-23T19:31:18;101041.59;;;24.76;37.58
40490;BME280;26196;52.302;10.572;2022-07-23T19:35:18;101046.13;;;24.75;37.59
40490;BME280;26196;52.302;10.572;2022-07-23T19:39:19;101050.72;;;24.73;37.45
40490;BME280;26196;52.302;10.572;2022-07-23T19:43:19;101059.75;;;24.72;37.52
40490;BME280;26196;52.302;10.572;2022-07-23T19:47:20;101059.13;;;24.68;37.44
40490;BME280;26196;52.302;10.572;2022-07-23T19:51:20;101066.44;;;24.66;37.49
40490;BME280;26196;52.302;10.572;2022-07-23T19:55:21;101074.56;;;24.65;37.40
40490;BME280;26196;52.302;10.572;2022-07-23T19:59:22;101071.41;;;24.60;37.42
40490;BME280;26196;52.302;10.572;2022-07-23T20:03:22;101075.91;;;24.59;37.45
40490;BME280;26196;52.302;10.572;2022-07-23T20:07:23;101082.22;;;24.58;37.45
40490;BME280;26196;52.302;10.572;2022-07-23T20:11:23;101078.94;;;24.55;37.38
40490;BME280;26196;52.302;10.572;2022-07-23T20:15:24;101081.75;;;24.53;37.48
40490;BME280;26196;52.302;10.572;2022-07-23T20:19:25;101088.19;;;24.51;37.63
40490;BME280;26196;52.302;10.572;2022-07-23T20:23:25;101083.78;;;24.50;37.56
40490;BME280;26196;52.302;10.572;2022-07-23T20:27:26;101083.28;;;24.44;37.63
40490;BME280;26196;52.302;10.572;2022-07-23T20:31:27;101085.06;;;24.44;37.63
40490;BME280;26196;52.302;10.572;2022-07-23T20:35:27;101093.97;;;24.44;37.69
40490;BME280;26196;52.302;10.572;2022-07-23T20:39:28;101091.41;;;24.43;37.70
40490;BME280;26196;52.302;10.572;2022-07-23T20:43:29;101097.59;;;24.43;37.87
40490;BME280;26196;52.302;10.572;2022-07-23T20:47:29;101102.22;;;24.41;37.88
40490;BME280;26196;52.302;10.572;2022-07-23T20:51:30;101103.19;;;24.40;37.84
40490;BME280;26196;52.302;10.572;2022-07-23T20:55:30;101101.59;;;24.38;38.00
40490;BME280;26196;52.302;10.572;2022-07-23T20:59:31;101107.81;;;24.38;37.99
40490;BME280;26196;52.302;10.572;2022-07-23T21:03:32;101106.81;;;24.39;38.12
40490;BME280;26196;52.302;10.572;2022-07-23T21:07:33;101100.63;;;24.39;38.00
40490;BME280;26196;52.302;10.572;2022-07-23T21:11:33;101117.41;;;24.41;38.22
40490;BME280;26196;52.302;10.572;2022-07-23T21:15:34;101111.31;;;24.39;38.29